F/V Anna Mamm Mari — FOHD — position and weather

sailwx.info

Track history (hours):
 
Tides and Currents Weather Stations Pressure Air Temp Water Temp Dewpoint Dewpoint Depression Visibility Wind Speed Wind Dir Waves Ship Positions

F/V Anna Mamm Mari

Last reported at 2018-Jun-24 23:09 UTC. Time now 2018-Jun-25 01:39 UTC.
Position N 46°55' W 002°46'.

Length 17 m.

Type: Fishing. MMSI: 228393000.

Date/timePositionNaut miles runAvg speedWind from/ knotsBaromVisibWave heightAir tempDewpointWater temp
2018-Jun-24 23:09N 46°55' W 002°46'0 0.2
2018-Jun-24 22:59N 46°55' W 002°46'0 0.2
2018-Jun-24 22:21N 46°55' W 002°46'2 0.2
2018-Jun-24 08:13N 46°52' W 002°47'2 0.2
2018-Jun-23 22:46N 46°54' W 002°47'0 0.1
2018-Jun-23 22:24N 46°54' W 002°47'0 0.0
2018-Jun-23 21:55N 46°54' W 002°47'4 0.3
2018-Jun-23 07:10N 46°53' W 002°53'1 8.7
2018-Jun-23 07:00N 46°53' W 002°51'15 0.6
2018-Jun-22 04:22N 46°58' W 002°30'4 9.3
2018-Jun-22 03:59N 46°59' W 002°25'4 9.1
2018-Jun-22 03:30N 47°02' W 002°19'1 0.3
2018-Jun-22 00:32N 47°01' W 002°18'25 1.7
2018-Jun-21 10:03N 46°52' W 002°52'3 1.9
2018-Jun-21 08:33N 46°50' W 002°54'1 2.5
2018-Jun-21 08:05N 46°51' W 002°53'0 3.0
2018-Jun-21 08:00N 46°51' W 002°53'1 1.0
2018-Jun-21 06:45N 46°52' W 002°54'1 2.1
2018-Jun-21 06:30N 46°51' W 002°54'0 0.6
2018-Jun-21 05:50N 46°52' W 002°55'1 2.0
2018-Jun-21 05:30N 46°52' W 002°54'1 2.1
2018-Jun-21 05:00N 46°53' W 002°53'2 4.2
2018-Jun-21 04:29N 46°55' W 002°55'0 0.0
2018-Jun-21 04:00N 46°55' W 002°55'0 0.0
2018-Jun-21 03:28N 46°55' W 002°55'0 0.0
2018-Jun-21 03:00N 46°55' W 002°55'0 0.1
2018-Jun-21 02:26N 46°55' W 002°55'0 0.0
2018-Jun-21 01:53N 46°55' W 002°55'0 0.0
2018-Jun-21 01:30N 46°55' W 002°55'0 0.0
2018-Jun-21 00:59N 46°55' W 002°55'0 0.1
2018-Jun-21 00:30N 46°55' W 002°55'0 0.1
2018-Jun-21 00:00N 46°55' W 002°54'0 0.1
2018-Jun-20 23:30N 46°55' W 002°54'0 0.1
2018-Jun-20 23:00N 46°55' W 002°54'0 0.1
2018-Jun-20 22:30N 46°55' W 002°54'0 0.1
2018-Jun-20 22:00N 46°55' W 002°54'0 0.1
2018-Jun-20 21:27N 46°55' W 002°54'0 0.1
2018-Jun-20 19:19N 46°55' W 002°54'0 0.0
2018-Jun-20 17:58N 46°55' W 002°54'0 0.2
2018-Jun-20 17:29N 46°55' W 002°54'2 0.5
2018-Jun-20 14:11N 46°54' W 002°52'0 0.4
2018-Jun-20 13:41N 46°54' W 002°53'2 5.1
2018-Jun-20 13:17N 46°56' W 002°53'1 2.2
2018-Jun-20 13:00N 46°56' W 002°53'1 0.5
2018-Jun-20 11:17N 46°55' W 002°53'1 1.9
2018-Jun-20 10:58N 46°56' W 002°54'1 1.6
2018-Jun-20 10:29N 46°56' W 002°53'1 1.4
2018-Jun-20 09:48N 46°56' W 002°53'1 0.1
2018-Jun-20 05:49N 46°56' W 002°52'0 0.0
2018-Jun-20 04:50N 46°56' W 002°52'0 0.1
2018-Jun-20 02:11N 46°56' W 002°52'0 0.1
2018-Jun-20 01:45N 46°56' W 002°52'0 0.0
2018-Jun-20 00:54N 46°56' W 002°52'0 0.1
2018-Jun-19 21:18N 46°56' W 002°52'0 0.1
2018-Jun-19 20:27N 46°56' W 002°52'6 1.3
2018-Jun-19 16:12N 46°51' W 002°52'1 2.0
2018-Jun-19 15:42N 46°50' W 002°52'2 7.1
2018-Jun-19 15:29N 46°51' W 002°50'1 1.3
2018-Jun-19 14:46N 46°50' W 002°50'1 2.6
2018-Jun-19 14:30N 46°50' W 002°50'1 0.9
2018-Jun-19 13:41N 46°50' W 002°51'0 2.3
2018-Jun-19 13:29N 46°50' W 002°51'1 2.7
2018-Jun-19 13:00N 46°51' W 002°51'1 1.1
2018-Jun-19 12:09N 46°50' W 002°52'0 2.6
2018-Jun-19 12:00N 46°50' W 002°52'2 3.0
2018-Jun-19 11:14N 46°52' W 002°55'2 6.7
2018-Jun-19 10:58N 46°53' W 002°53'1 0.8
2018-Jun-19 09:38N 46°52' W 002°54'1 2.0
2018-Jun-19 09:21N 46°53' W 002°53'1 2.4
2018-Jun-19 08:55N 46°53' W 002°52'3 4.3
2018-Jun-19 08:09N 46°57' W 002°54'0 0.0
2018-Jun-19 07:48N 46°57' W 002°54'0 0.1
2018-Jun-19 07:21N 46°57' W 002°54'0 0.1
2018-Jun-19 06:59N 46°57' W 002°54'0 0.1
2018-Jun-19 06:28N 46°57' W 002°54'0 0.1
2018-Jun-19 05:57N 46°57' W 002°54'0 0.0
2018-Jun-19 05:11N 46°57' W 002°54'0 0.0
2018-Jun-19 05:00N 46°57' W 002°54'0 0.0
2018-Jun-19 04:10N 46°57' W 002°54'0 0.1
2018-Jun-19 03:55N 46°57' W 002°54'0 0.0
2018-Jun-18 18:05N 46°57' W 002°54'15 2.5
2018-Jun-18 12:15N 47°01' W 003°15'1 1.8
2018-Jun-18 11:50N 47°01' W 003°15'1 2.2
2018-Jun-18 11:30N 47°02' W 003°15'1 2.0
2018-Jun-18 11:00N 47°03' W 003°16'3 1.7
2018-Jun-18 08:59N 46°60' W 003°14'0 0.0
2018-Jun-18 06:38N 46°60' W 003°14'0 0.0
2018-Jun-18 05:48N 46°60' W 003°14'0 0.0
2018-Jun-18 05:30N 46°60' W 003°14'0 0.1
2018-Jun-18 04:50N 47°00' W 003°14'0 0.1
2018-Jun-18 04:27N 47°00' W 003°14'0 0.0
2018-Jun-18 04:00N 47°00' W 003°14'0 0.0
2018-Jun-18 03:30N 47°00' W 003°14'0 0.0
2018-Jun-18 02:45N 47°00' W 003°14'0 0.1
2018-Jun-18 02:29N 47°00' W 003°14'25 7.0
2018-Jun-17 22:54N 47°01' W 002°37'4 8.9
2018-Jun-17 22:25N 47°01' W 002°31'4 8.9
2018-Jun-17 22:00N 47°01' W 002°25'4 8.9
2018-Jun-17 21:30N 47°02' W 002°19'1 1.1
2018-Jun-17 20:52N 47°01' W 002°18'0 0.0
2018-Jun-17 20:26N 47°01' W 002°18'0 0.0
2018-Jun-17 19:59N 47°02' W 002°18'0 0.0
2018-Jun-17 19:22N 47°02' W 002°18'29 3.3
2018-Jun-17 10:29N 46°53' W 002°59'14 1.9
2018-Jun-17 03:00N 47°02' W 003°16'0 0.0
2018-Jun-17 01:55N 47°02' W 003°16'0 0.0
2018-Jun-17 01:29N 47°02' W 003°16'0 0.2
2018-Jun-17 00:46N 47°02' W 003°16'0 0.0
2018-Jun-17 00:30N 47°02' W 003°16'28 1.4
2018-Jun-16 03:40N 46°58' W 002°35'2 7.4
2018-Jun-16 03:25N 46°59' W 002°32'3 7.1
2018-Jun-16 03:00N 46°60' W 002°28'4 7.2
2018-Jun-16 02:30N 47°01' W 002°23'4 7.3
2018-Jun-16 02:00N 47°02' W 002°18'1 0.9
2018-Jun-16 01:20N 47°01' W 002°18'0 0.0
2018-Jun-16 00:48N 47°01' W 002°18'0 0.0
2018-Jun-16 00:25N 47°01' W 002°18'0 0.0
2018-Jun-16 00:00N 47°01' W 002°18'0 0.0
2018-Jun-15 19:17N 47°01' W 002°18'0 0.0
2018-Jun-15 18:54N 47°01' W 002°18'0 0.0
2018-Jun-15 14:43N 47°02' W 002°18'0 0.0
2018-Jun-15 14:18N 47°01' W 002°18'0 0.1
2018-Jun-15 14:00N 47°02' W 002°18'0 0.0
2018-Jun-15 08:27N 47°01' W 002°18'0 0.0
2018-Jun-15 03:18N 47°01' W 002°18'0 0.0
2018-Jun-15 00:32N 47°01' W 002°18'0 0.0
2018-Jun-15 00:14N 47°01' W 002°18'0 0.0
2018-Jun-14 23:59N 47°01' W 002°18'0 0.0
2018-Jun-14 23:24N 47°01' W 002°18'  
Track history (hours):
 
Tides and Currents Weather Stations Pressure Air Temp Water Temp Dewpoint Dewpoint Depression Visibility Wind Speed Wind Dir Waves Ship Positions

F/V Anna Mamm Mari

Last reported at 2018-Jun-24 23:09 UTC. Time now 2018-Jun-25 01:39 UTC.
Position N 46°55' W 002°46'.

Length 17 m.

Type: Fishing. MMSI: 228393000.

Date/timePositionNaut miles runAvg speedWind from/ knotsBaromVisibWave heightAir tempDewpointWater temp
2018-Jun-24 23:09N 46°55' W 002°46'0 0.2
2018-Jun-24 22:59N 46°55' W 002°46'0 0.2
2018-Jun-24 22:21N 46°55' W 002°46'2 0.2
2018-Jun-24 08:13N 46°52' W 002°47'2 0.2
2018-Jun-23 22:46N 46°54' W 002°47'0 0.1
2018-Jun-23 22:24N 46°54' W 002°47'0 0.0
2018-Jun-23 21:55N 46°54' W 002°47'4 0.3
2018-Jun-23 07:10N 46°53' W 002°53'1 8.7
2018-Jun-23 07:00N 46°53' W 002°51'15 0.6
2018-Jun-22 04:22N 46°58' W 002°30'4 9.3
2018-Jun-22 03:59N 46°59' W 002°25'4 9.1
2018-Jun-22 03:30N 47°02' W 002°19'1 0.3
2018-Jun-22 00:32N 47°01' W 002°18'25 1.7
2018-Jun-21 10:03N 46°52' W 002°52'3 1.9
2018-Jun-21 08:33N 46°50' W 002°54'1 2.5
2018-Jun-21 08:05N 46°51' W 002°53'0 3.0
2018-Jun-21 08:00N 46°51' W 002°53'1 1.0
2018-Jun-21 06:45N 46°52' W 002°54'1 2.1
2018-Jun-21 06:30N 46°51' W 002°54'0 0.6
2018-Jun-21 05:50N 46°52' W 002°55'1 2.0
2018-Jun-21 05:30N 46°52' W 002°54'1 2.1
2018-Jun-21 05:00N 46°53' W 002°53'2 4.2
2018-Jun-21 04:29N 46°55' W 002°55'0 0.0
2018-Jun-21 04:00N 46°55' W 002°55'0 0.0
2018-Jun-21 03:28N 46°55' W 002°55'0 0.0
2018-Jun-21 03:00N 46°55' W 002°55'0 0.1
2018-Jun-21 02:26N 46°55' W 002°55'0 0.0
2018-Jun-21 01:53N 46°55' W 002°55'0 0.0
2018-Jun-21 01:30N 46°55' W 002°55'0 0.0
2018-Jun-21 00:59N 46°55' W 002°55'0 0.1
2018-Jun-21 00:30N 46°55' W 002°55'0 0.1
2018-Jun-21 00:00N 46°55' W 002°54'0 0.1
2018-Jun-20 23:30N 46°55' W 002°54'0 0.1
2018-Jun-20 23:00N 46°55' W 002°54'0 0.1
2018-Jun-20 22:30N 46°55' W 002°54'0 0.1
2018-Jun-20 22:00N 46°55' W 002°54'0 0.1
2018-Jun-20 21:27N 46°55' W 002°54'0 0.1
2018-Jun-20 19:19N 46°55' W 002°54'0 0.0
2018-Jun-20 17:58N 46°55' W 002°54'0 0.2
2018-Jun-20 17:29N 46°55' W 002°54'2 0.5
2018-Jun-20 14:11N 46°54' W 002°52'0 0.4
2018-Jun-20 13:41N 46°54' W 002°53'2 5.1
2018-Jun-20 13:17N 46°56' W 002°53'1 2.2
2018-Jun-20 13:00N 46°56' W 002°53'1 0.5
2018-Jun-20 11:17N 46°55' W 002°53'1 1.9
2018-Jun-20 10:58N 46°56' W 002°54'1 1.6
2018-Jun-20 10:29N 46°56' W 002°53'1 1.4
2018-Jun-20 09:48N 46°56' W 002°53'1 0.1
2018-Jun-20 05:49N 46°56' W 002°52'0 0.0
2018-Jun-20 04:50N 46°56' W 002°52'0 0.1
2018-Jun-20 02:11N 46°56' W 002°52'0 0.1
2018-Jun-20 01:45N 46°56' W 002°52'0 0.0
2018-Jun-20 00:54N 46°56' W 002°52'0 0.1
2018-Jun-19 21:18N 46°56' W 002°52'0 0.1
2018-Jun-19 20:27N 46°56' W 002°52'6 1.3
2018-Jun-19 16:12N 46°51' W 002°52'1 2.0
2018-Jun-19 15:42N 46°50' W 002°52'2 7.1
2018-Jun-19 15:29N 46°51' W 002°50'1 1.3
2018-Jun-19 14:46N 46°50' W 002°50'1 2.6
2018-Jun-19 14:30N 46°50' W 002°50'1 0.9
2018-Jun-19 13:41N 46°50' W 002°51'0 2.3
2018-Jun-19 13:29N 46°50' W 002°51'1 2.7
2018-Jun-19 13:00N 46°51' W 002°51'1 1.1
2018-Jun-19 12:09N 46°50' W 002°52'0 2.6
2018-Jun-19 12:00N 46°50' W 002°52'2 3.0
2018-Jun-19 11:14N 46°52' W 002°55'2 6.7
2018-Jun-19 10:58N 46°53' W 002°53'1 0.8
2018-Jun-19 09:38N 46°52' W 002°54'1 2.0
2018-Jun-19 09:21N 46°53' W 002°53'1 2.4
2018-Jun-19 08:55N 46°53' W 002°52'3 4.3
2018-Jun-19 08:09N 46°57' W 002°54'0 0.0
2018-Jun-19 07:48N 46°57' W 002°54'0 0.1
2018-Jun-19 07:21N 46°57' W 002°54'0 0.1
2018-Jun-19 06:59N 46°57' W 002°54'0 0.1
2018-Jun-19 06:28N 46°57' W 002°54'0 0.1
2018-Jun-19 05:57N 46°57' W 002°54'0 0.0
2018-Jun-19 05:11N 46°57' W 002°54'0 0.0
2018-Jun-19 05:00N 46°57' W 002°54'0 0.0
2018-Jun-19 04:10N 46°57' W 002°54'0 0.1
2018-Jun-19 03:55N 46°57' W 002°54'0 0.0
2018-Jun-18 18:05N 46°57' W 002°54'15 2.5
2018-Jun-18 12:15N 47°01' W 003°15'1 1.8
2018-Jun-18 11:50N 47°01' W 003°15'1 2.2
2018-Jun-18 11:30N 47°02' W 003°15'1 2.0
2018-Jun-18 11:00N 47°03' W 003°16'3 1.7
2018-Jun-18 08:59N 46°60' W 003°14'0 0.0
2018-Jun-18 06:38N 46°60' W 003°14'0 0.0
2018-Jun-18 05:48N 46°60' W 003°14'0 0.0
2018-Jun-18 05:30N 46°60' W 003°14'0 0.1
2018-Jun-18 04:50N 47°00' W 003°14'0 0.1
2018-Jun-18 04:27N 47°00' W 003°14'0 0.0
2018-Jun-18 04:00N 47°00' W 003°14'0 0.0
2018-Jun-18 03:30N 47°00' W 003°14'0 0.0
2018-Jun-18 02:45N 47°00' W 003°14'0 0.1
2018-Jun-18 02:29N 47°00' W 003°14'25 7.0
2018-Jun-17 22:54N 47°01' W 002°37'4 8.9
2018-Jun-17 22:25N 47°01' W 002°31'4 8.9
2018-Jun-17 22:00N 47°01' W 002°25'4 8.9
2018-Jun-17 21:30N 47°02' W 002°19'1 1.1
2018-Jun-17 20:52N 47°01' W 002°18'0 0.0
2018-Jun-17 20:26N 47°01' W 002°18'0 0.0
2018-Jun-17 19:59N 47°02' W 002°18'0 0.0
2018-Jun-17 19:22N 47°02' W 002°18'29 3.3
2018-Jun-17 10:29N 46°53' W 002°59'14 1.9
2018-Jun-17 03:00N 47°02' W 003°16'0 0.0
2018-Jun-17 01:55N 47°02' W 003°16'0 0.0
2018-Jun-17 01:29N 47°02' W 003°16'0 0.2
2018-Jun-17 00:46N 47°02' W 003°16'0 0.0
2018-Jun-17 00:30N 47°02' W 003°16'28 1.4
2018-Jun-16 03:40N 46°58' W 002°35'2 7.4
2018-Jun-16 03:25N 46°59' W 002°32'3 7.1
2018-Jun-16 03:00N 46°60' W 002°28'4 7.2
2018-Jun-16 02:30N 47°01' W 002°23'4 7.3
2018-Jun-16 02:00N 47°02' W 002°18'1 0.9
2018-Jun-16 01:20N 47°01' W 002°18'0 0.0
2018-Jun-16 00:48N 47°01' W 002°18'0 0.0
2018-Jun-16 00:25N 47°01' W 002°18'0 0.0
2018-Jun-16 00:00N 47°01' W 002°18'0 0.0
2018-Jun-15 19:17N 47°01' W 002°18'0 0.0
2018-Jun-15 18:54N 47°01' W 002°18'0 0.0
2018-Jun-15 14:43N 47°02' W 002°18'0 0.0
2018-Jun-15 14:18N 47°01' W 002°18'0 0.1
2018-Jun-15 14:00N 47°02' W 002°18'0 0.0
2018-Jun-15 08:27N 47°01' W 002°18'0 0.0
2018-Jun-15 03:18N 47°01' W 002°18'0 0.0
2018-Jun-15 00:32N 47°01' W 002°18'0 0.0
2018-Jun-15 00:14N 47°01' W 002°18'0 0.0
2018-Jun-14 23:59N 47°01' W 002°18'0 0.0
2018-Jun-14 23:24N 47°01' W 002°18'  

Dump ship's entire track history